Time;durP1;ratioP1;P1;durP2;ratioP2;P2;SDS_P1;SDS_P2;PMS_P1;PMS_P2;Temp;Humidity;BMP_temperature;BMP_pressure;BME280_temperature;BME280_humidity;BME280_pressure;Samples;Min_cycle;Max_cycle;Signal;HPM_P1;HPM_P2
2021/12/27 00:01:59;;;;;;;206.50;74.60;;;;;;;-14.06;72.08;99907.79;208028;1316;141731;-72
2021/12/27 00:07:01;;;;;;;218.30;78.60;;;;;;;-14.01;71.97;99909.77;207471;1316;141795;-72
2021/12/27 00:12:04;;;;;;;189.60;70.70;;;;;;;-13.97;72.27;99917.09;207282;1315;142487;-76
2021/12/27 00:17:11;;;;;;;184.10;71.30;;;;;;;-13.90;72.07;99918.60;207689;1316;142104;-71
2021/12/27 00:22:13;;;;;;;190.20;77.30;;;;;;;-13.99;71.98;99912.54;207062;1318;140539;-68
2021/12/27 00:27:17;;;;;;;171.80;70.50;;;;;;;-14.06;71.93;99912.06;207865;1318;141204;-69
2021/12/27 00:32:23;;;;;;;207.80;73.70;;;;;;;-14.09;72.19;99911.21;208243;1320;140744;-69
2021/12/27 00:37:25;;;;;;;172.20;66.10;;;;;;;-13.89;72.78;99913.08;207520;1320;140441;-73
2021/12/27 00:42:27;;;;;;;157.20;61.40;;;;;;;-13.71;72.36;99904.65;207962;1317;141351;-75
2021/12/27 00:47:30;;;;;;;179.20;66.60;;;;;;;-13.90;71.42;99910.76;206937;1316;142859;-71
2021/12/27 00:52:33;;;;;;;158.30;60.40;;;;;;;-14.16;71.47;99914.77;207031;1316;140822;-70
2021/12/27 00:57:36;;;;;;;174.70;69.50;;;;;;;-14.22;72.14;99919.83;207255;1316;141351;-67
2021/12/27 01:02:39;;;;;;;204.20;65.00;;;;;;;-14.12;72.54;99917.64;207079;1318;141544;-69
2021/12/27 01:07:42;;;;;;;179.70;63.30;;;;;;;-13.90;72.48;99918.46;207089;1318;141808;-74
2021/12/27 01:13:23;;;;;;;168.40;62.10;;;;;;;-13.89;72.63;99919.59;207562;1319;141485;-72
2021/12/27 01:18:15;;;;;;;146.10;59.50;;;;;;;-13.82;72.53;99910.34;206948;1316;141639;-74
2021/12/27 01:23:17;;;;;;;152.50;57.50;;;;;;;-13.88;72.26;99911.88;208206;1315;141078;-74
2021/12/27 01:28:20;;;;;;;121.30;50.00;;;;;;;-13.84;72.90;99914.39;207240;1315;141841;-75
2021/12/27 01:33:23;;;;;;;148.00;54.70;;;;;;;-13.76;72.68;99909.52;207774;1315;141869;-74
2021/12/27 01:38:26;;;;;;;180.20;60.40;;;;;;;-13.63;73.03;99903.90;207912;1318;141577;-66
2021/12/27 01:43:31;;;;;;;165.00;68.70;;;;;;;-13.47;73.24;99905.80;208930;1318;141438;-76
2021/12/27 01:48:41;;;;;;;143.10;57.60;;;;;;;-13.30;72.78;99909.03;208651;1316;141170;-72
2021/12/27 01:53:45;;;;;;;155.50;58.10;;;;;;;-13.43;72.35;99905.73;208437;1318;141058;-74
2021/12/27 01:58:51;;;;;;;136.50;54.50;;;;;;;-13.38;72.69;99908.90;208938;1318;140533;-69
2021/12/27 02:03:55;;;;;;;181.90;73.30;;;;;;;-13.30;72.93;99909.40;208468;1316;140395;-68
2021/12/27 02:08:58;;;;;;;180.90;67.30;;;;;;;-13.18;73.10;99911.98;207712;1318;141891;-73
2021/12/27 02:14:08;;;;;;;164.80;62.80;;;;;;;-12.99;73.35;99910.78;207032;1316;143568;-74
2021/12/27 02:19:12;;;;;;;147.00;56.00;;;;;;;-13.16;72.18;99903.29;208385;1316;142510;-71
2021/12/27 02:24:15;;;;;;;118.50;48.20;;;;;;;-13.40;72.09;99903.05;207916;1316;141205;-74
2021/12/27 02:29:19;;;;;;;130.30;53.30;;;;;;;-13.53;72.30;99905.27;207922;1316;141571;-71
2021/12/27 02:34:23;;;;;;;127.40;50.60;;;;;;;-13.56;72.67;99901.84;207010;1316;141331;-70
2021/12/27 02:39:29;;;;;;;136.60;51.10;;;;;;;-13.39;72.96;99895.46;207203;1316;140342;-75
2021/12/27 02:44:38;;;;;;;140.40;52.40;;;;;;;-13.31;72.52;99892.48;207112;1317;141445;-74
2021/12/27 02:49:41;;;;;;;135.50;48.70;;;;;;;-13.35;72.21;99882.23;207063;1315;140834;-73
2021/12/27 02:54:44;;;;;;;121.70;48.00;;;;;;;-13.53;71.86;99883.41;207712;1317;140462;-71
2021/12/27 02:59:46;;;;;;;125.10;49.30;;;;;;;-13.62;72.39;99879.59;207994;1318;140801;-75
2021/12/27 03:04:49;;;;;;;107.10;45.10;;;;;;;-13.66;72.06;99873.48;207567;1316;140398;-71
2021/12/27 03:09:58;;;;;;;101.70;41.80;;;;;;;-13.74;72.13;99866.55;208166;1316;140509;-71
2021/12/27 03:15:02;;;;;;;110.10;44.10;;;;;;;-13.75;72.23;99862.33;207187;1316;141800;-72
2021/12/27 03:20:08;;;;;;;115.50;46.90;;;;;;;-13.84;72.23;99862.09;207740;1316;143109;-73
2021/12/27 03:25:15;;;;;;;105.30;42.20;;;;;;;-13.95;72.22;99856.48;207153;1316;142380;-71
2021/12/27 03:30:25;;;;;;;;;;;;;;;-13.87;72.66;99856.45;208579;1317;143502;-73
2021/12/27 03:35:35;;;;;;;109.50;43.20;;;;;;;-13.69;72.76;99859.79;210216;1317;126978;-71
2021/12/27 03:40:39;;;;;;;118.30;42.20;;;;;;;-13.73;72.20;99859.33;209133;1317;143120;-71
2021/12/27 03:45:42;;;;;;;106.80;38.90;;;;;;;-13.59;72.77;99856.18;209184;1317;141342;-71
2021/12/27 03:50:45;;;;;;;122.60;47.50;;;;;;;-13.52;72.18;99849.68;207593;1316;143586;-74
2021/12/27 03:55:48;;;;;;;110.00;46.00;;;;;;;-13.49;72.27;99841.52;209590;1316;140663;-71
2021/12/27 04:05:58;;;;;;;145.90;54.80;;;;;;;-13.49;71.77;99844.41;208028;1316;141858;-69
2021/12/27 04:11:02;;;;;;;112.40;44.70;;;;;;;-13.55;71.69;99843.00;208164;1314;142921;-70
2021/12/27 04:16:04;;;;;;;140.80;47.50;;;;;;;-13.60;71.86;99839.17;207365;1318;143647;-70
2021/12/27 04:21:07;;;;;;;99.30;41.20;;;;;;;-13.63;71.59;99845.46;207514;1316;141289;-69
2021/12/27 04:26:10;;;;;;;96.70;37.50;;;;;;;-13.92;71.09;99850.57;207727;1318;141927;-69
2021/12/27 04:31:14;;;;;;;93.50;41.60;;;;;;;-14.17;71.55;99852.84;207438;1317;141793;-68
2021/12/27 04:36:17;;;;;;;94.80;37.10;;;;;;;-14.23;72.06;99849.55;207216;1315;142796;-69
2021/12/27 04:41:21;;;;;;;113.20;39.20;;;;;;;-14.21;72.35;99843.34;207475;1316;143267;-71
2021/12/27 04:46:24;;;;;;;116.70;41.20;;;;;;;-14.14;72.30;99829.29;207406;1315;141980;-73
2021/12/27 04:51:26;;;;;;;96.70;38.20;;;;;;;-14.05;72.61;99819.44;207541;1316;141668;-69
2021/12/27 04:56:29;;;;;;;97.40;39.60;;;;;;;-14.09;72.03;99820.31;207332;1316;142561;-70
2021/12/27 05:01:32;;;;;;;88.60;39.00;;;;;;;-14.20;72.16;99817.65;208164;1316;141290;-67
2021/12/27 05:06:35;;;;;;;82.10;37.50;;;;;;;-14.19;72.50;99815.56;207482;1318;141982;-69
2021/12/27 05:11:37;;;;;;;106.60;39.70;;;;;;;-14.19;72.34;99813.67;207607;1318;235162;-69
2021/12/27 05:16:40;;;;;;;121.00;40.20;;;;;;;-14.13;72.75;99812.35;207549;1317;141862;-68
2021/12/27 05:21:43;;;;;;;95.10;36.60;;;;;;;-14.05;72.09;99816.73;207808;1316;141608;-70
2021/12/27 05:26:45;;;;;;;86.30;36.00;;;;;;;-14.26;72.03;99822.90;207676;1316;142000;-70
2021/12/27 05:31:48;;;;;;;88.40;34.10;;;;;;;-14.36;72.29;99825.44;207794;1317;140845;-68
2021/12/27 05:36:51;;;;;;;103.30;36.90;;;;;;;-14.28;72.64;99818.57;208516;1316;141018;-69
2021/12/27 05:41:53;;;;;;;101.30;38.50;;;;;;;-14.10;72.73;99818.16;209186;1319;141576;-67
2021/12/27 05:46:56;;;;;;;88.00;35.00;;;;;;;-13.88;73.20;99816.53;209170;1316;142002;-69
2021/12/27 05:51:58;;;;;;;110.90;41.00;;;;;;;-13.64;73.84;99817.48;207306;1315;1064067;-69
2021/12/27 05:57:01;;;;;;;96.80;33.60;;;;;;;-13.37;73.91;99815.36;208699;1316;142898;-70
2021/12/27 06:02:04;;;;;;;97.80;34.20;;;;;;;-13.09;74.17;99812.80;207324;1316;141596;-72
2021/12/27 06:07:07;;;;;;;91.30;31.90;;;;;;;-13.00;73.63;99815.67;208669;1318;141645;-73
2021/12/27 06:12:10;;;;;;;90.70;36.20;;;;;;;-12.89;73.85;99815.81;208846;1317;141624;-73
2021/12/27 06:17:12;;;;;;;63.20;23.80;;;;;;;-12.73;74.23;99811.46;208344;1316;141464;-71
2021/12/27 06:22:15;;;;;;;38.60;15.70;;;;;;;-12.62;74.21;99813.73;207071;1316;140523;-72
2021/12/27 06:27:18;;;;;;;40.20;18.90;;;;;;;-12.39;74.86;99811.58;207705;1316;142072;-72
2021/12/27 06:32:23;;;;;;;39.90;17.10;;;;;;;-12.19;75.25;99810.89;206889;1316;141308;-71
2021/12/27 06:37:26;;;;;;;47.20;16.70;;;;;;;-11.92;75.40;99813.80;207339;1316;142360;-71
2021/12/27 06:42:29;;;;;;;43.00;17.60;;;;;;;-11.77;75.46;99816.82;207586;1316;163328;-70
2021/12/27 06:47:32;;;;;;;36.80;15.50;;;;;;;-11.77;75.52;99822.12;207683;1316;141766;-69
2021/12/27 06:52:35;;;;;;;37.40;13.30;;;;;;;-11.76;75.65;99818.52;206998;1317;140159;-69
2021/12/27 06:57:40;;;;;;;47.60;14.20;;;;;;;-11.75;75.20;99817.36;206846;1316;143817;-69
2021/12/27 07:02:44;;;;;;;40.60;18.40;;;;;;;-11.60;75.51;99812.48;207710;1315;140237;-71
2021/12/27 07:07:47;;;;;;;41.60;16.80;;;;;;;-11.43;75.61;99819.18;207520;1316;141203;-74
2021/12/27 07:12:51;;;;;;;29.60;11.90;;;;;;;-11.21;75.93;99830.98;206976;1316;140583;-72
2021/12/27 07:17:53;;;;;;;28.90;13.00;;;;;;;-10.99;76.01;99829.95;207365;1315;140709;-75
2021/12/27 07:22:56;;;;;;;29.00;10.90;;;;;;;-10.72;76.46;99818.10;207404;1316;140368;-71
2021/12/27 07:28:02;;;;;;;21.40;11.40;;;;;;;-10.36;77.12;99817.33;207380;1316;140455;-69
2021/12/27 07:33:05;;;;;;;22.30;11.00;;;;;;;-10.11;77.27;99816.51;207687;1317;140602;-68
2021/12/27 07:38:08;;;;;;;33.10;12.90;;;;;;;-9.99;77.41;99816.38;207669;1317;140935;-70
2021/12/27 07:43:10;;;;;;;32.50;12.10;;;;;;;-9.88;77.30;99810.64;207329;1316;141148;-75
2021/12/27 07:48:13;;;;;;;35.90;15.50;;;;;;;-9.80;77.45;99807.72;209302;1315;141070;-75
2021/12/27 07:53:16;;;;;;;42.00;15.00;;;;;;;-9.66;77.33;99801.92;208704;1318;140356;-75
2021/12/27 07:58:19;;;;;;;18.30;10.50;;;;;;;-9.46;77.13;99804.64;209240;1317;142502;-72
2021/12/27 08:03:22;;;;;;;15.00;9.20;;;;;;;-9.22;77.21;99810.72;208708;1317;141918;-73
2021/12/27 08:08:26;;;;;;;24.90;9.70;;;;;;;-8.98;77.40;99808.51;209126;1319;142209;-73
2021/12/27 08:13:29;;;;;;;33.90;12.30;;;;;;;-8.74;77.44;99805.73;208015;1319;142394;-72
2021/12/27 08:18:33;;;;;;;25.70;12.70;;;;;;;-8.57;77.42;99795.17;208182;1316;141863;-69
2021/12/27 08:23:37;;;;;;;26.20;13.20;;;;;;;-8.42;77.58;99788.36;207336;1318;141333;-69
2021/12/27 08:28:41;;;;;;;16.90;9.90;;;;;;;-8.33;77.49;99789.83;207484;1319;141080;-69
2021/12/27 08:33:44;;;;;;;14.60;8.10;;;;;;;-8.31;77.17;99788.77;206987;1317;140045;-70
2021/12/27 08:38:49;;;;;;;22.00;11.90;;;;;;;-8.28;77.24;99792.11;208088;1318;140980;-73
2021/12/27 08:43:54;;;;;;;18.80;8.60;;;;;;;-8.13;77.11;99797.56;207271;1316;142030;-71
2021/12/27 08:49:08;;;;;;;24.80;11.80;;;;;;;-7.97;76.96;99796.38;206454;1318;142203;-67
2021/12/27 08:54:21;;;;;;;25.30;11.40;;;;;;;-7.79;76.93;99804.67;207554;1317;140489;-74
2021/12/27 08:59:30;;;;;;;33.40;13.30;;;;;;;-7.60;76.99;99795.05;207700;1318;141207;-70
2021/12/27 09:04:34;;;;;;;33.60;13.50;;;;;;;-7.39;76.82;99790.14;207139;1317;140035;-71
2021/12/27 09:09:37;;;;;;;14.60;7.40;;;;;;;-7.25;76.81;99791.30;207223;1318;139650;-73
2021/12/27 09:14:41;;;;;;;18.00;9.20;;;;;;;-7.22;76.64;99785.70;207219;1316;140718;-72
2021/12/27 09:19:49;;;;;;;16.20;10.80;;;;;;;-7.19;76.66;99773.52;207553;1316;140717;-75
2021/12/27 09:24:52;;;;;;;15.00;8.60;;;;;;;-7.14;76.66;99761.24;206842;1318;144090;-72
2021/12/27 09:29:55;;;;;;;15.60;7.60;;;;;;;-7.08;76.58;99754.57;207910;1316;233802;-76
2021/12/27 09:34:59;;;;;;;16.40;7.10;;;;;;;-7.02;76.65;99744.77;207342;1318;140754;-68
2021/12/27 09:40:04;;;;;;;26.60;10.30;;;;;;;-6.93;76.31;99737.81;207495;1316;140356;-74
2021/12/27 09:45:08;;;;;;;20.20;7.90;;;;;;;-6.78;75.97;99731.89;208858;1315;140475;-78
2021/12/27 09:50:17;;;;;;;15.80;9.00;;;;;;;-6.56;75.87;99713.67;207979;1316;141901;-74
2021/12/27 09:55:27;;;;;;;21.00;7.90;;;;;;;-6.33;75.42;99701.88;207429;1316;141288;-69
2021/12/27 10:00:34;;;;;;;23.60;10.50;;;;;;;-6.09;75.32;99697.50;208649;1316;142248;-70
2021/12/27 10:05:55;;;;;;;;;;;;;;;;;;;;;
2021/12/27 10:10:58;;;;;;;16.30;7.50;;;;;;;-5.68;75.37;99698.77;209125;1319;141612;-73
2021/12/27 10:16:01;;;;;;;17.90;6.00;;;;;;;-5.60;74.68;99699.08;209542;1317;141414;-71
2021/12/27 10:21:14;;;;;;;29.90;8.80;;;;;;;-5.54;74.50;99691.10;208906;1315;140810;-73
2021/12/27 10:26:18;;;;;;;18.30;8.00;;;;;;;-5.49;74.03;99689.41;208342;1315;140202;-74
2021/12/27 10:31:24;;;;;;;30.10;12.00;;;;;;;-5.38;73.68;99680.39;207553;1316;140164;-71
2021/12/27 10:36:28;;;;;;;17.10;6.60;;;;;;;-5.28;73.48;99675.54;206968;1315;139867;-66
2021/12/27 10:41:37;;;;;;;35.90;11.60;;;;;;;-5.23;73.22;99676.77;208323;1316;140419;-66
2021/12/27 10:46:43;;;;;;;30.50;9.70;;;;;;;-5.18;72.87;99675.44;207991;1316;140408;-67
2021/12/27 10:51:49;;;;;;;17.60;9.20;;;;;;;-5.09;72.71;99664.77;207446;1316;140115;-76
2021/12/27 10:56:54;;;;;;;24.40;10.70;;;;;;;-5.03;72.57;99659.44;207308;1317;140505;-72
2021/12/27 11:02:10;;;;;;;18.80;9.20;;;;;;;-4.96;72.61;99650.66;207723;1316;141025;-68
2021/12/27 11:07:13;;;;;;;23.90;12.40;;;;;;;-4.91;72.46;99647.79;206893;1316;141308;-67
2021/12/27 11:12:17;;;;;;;34.00;10.30;;;;;;;-4.86;72.33;99649.05;206829;1316;140505;-66
2021/12/27 11:17:20;;;;;;;35.00;14.30;;;;;;;-4.79;72.12;99646.06;207601;1316;140302;-68
2021/12/27 11:22:23;;;;;;;26.60;12.80;;;;;;;-4.71;72.20;99640.91;207217;1316;139638;-68
2021/12/27 11:27:36;;;;;;;35.40;12.10;;;;;;;-4.62;72.15;99636.48;207280;1317;139966;-67
2021/12/27 11:33:12;;;;;;;29.50;12.10;;;;;;;-4.49;72.09;99625.69;206682;1318;141860;-67
2021/12/27 11:38:36;;;;;;;38.00;12.80;;;;;;;-4.26;72.05;99620.95;208015;1316;141000;-68
2021/12/27 11:44:03;;;;;;;18.40;9.20;;;;;;;-4.03;71.98;99623.08;206992;1315;139609;-68
2021/12/27 11:49:05;;;;;;;22.10;8.00;;;;;;;-3.86;71.53;99616.10;207698;1316;139706;-67
2021/12/27 11:54:34;;;;;;;20.90;6.50;;;;;;;-3.72;71.48;99614.29;207903;1316;140621;-67
2021/12/27 11:59:42;;;;;;;26.40;10.00;;;;;;;-3.59;71.13;99599.84;209134;1315;141132;-67
2021/12/27 12:04:46;;;;;;;28.80;12.60;;;;;;;-3.47;70.99;99592.89;209177;1319;141224;-67
2021/12/27 12:09:50;;;;;;;26.50;10.20;;;;;;;-3.35;70.86;99581.13;207820;1319;139989;-67
2021/12/27 12:15:01;;;;;;;25.40;9.30;;;;;;;-3.27;70.80;99585.92;208647;1316;140692;-67
2021/12/27 12:20:04;;;;;;;32.70;11.20;;;;;;;-3.25;70.55;99584.27;208947;1315;139765;-68
2021/12/27 12:25:23;;;;;;;26.20;13.20;;;;;;;-3.18;70.49;99576.09;208567;1316;141140;-68
2021/12/27 12:30:32;;;;;;;23.10;9.30;;;;;;;-3.11;70.27;99563.59;208790;1316;141778;-68
2021/12/27 12:36:04;;;;;;;24.50;9.30;;;;;;;-3.07;70.32;99558.16;208374;1315;139998;-67
2021/12/27 12:41:25;;;;;;;22.20;9.80;;;;;;;-3.02;70.08;99555.92;208134;1316;139954;-67
2021/12/27 12:47:03;;;;;;;;;;;;;;;;;;;;;
2021/12/27 12:52:46;;;;;;;39.70;13.20;;;;;;;-2.79;70.07;99549.30;209048;1315;143064;-70
2021/12/27 12:57:57;;;;;;;22.80;10.30;;;;;;;-2.70;70.12;99557.05;207843;1317;140552;-68
2021/12/27 13:03:26;;;;;;;25.60;12.80;;;;;;;-2.67;69.99;99547.42;206836;1315;140596;-69
2021/12/27 13:08:34;;;;;;;21.30;9.00;;;;;;;-2.66;70.02;99548.11;207991;1316;140168;-68
2021/12/27 13:13:43;;;;;;;29.50;11.60;;;;;;;-2.70;70.12;99543.65;207709;1316;140376;-67
2021/12/27 13:18:50;;;;;;;25.80;12.70;;;;;;;-2.69;69.83;99542.88;208395;1316;140543;-68
2021/12/27 13:24:03;;;;;;;22.20;9.40;;;;;;;-2.74;69.98;99536.04;207791;1318;139901;-68
2021/12/27 13:29:06;;;;;;;23.30;10.00;;;;;;;-2.81;69.97;99530.23;207992;1317;139391;-67
2021/12/27 13:34:30;;;;;;;22.60;9.30;;;;;;;-2.92;69.91;99532.17;207670;1316;141707;-69
2021/12/27 13:39:42;;;;;;;32.10;12.80;;;;;;;-3.04;69.96;99528.65;206710;1317;163475;-67
2021/12/27 13:44:46;;;;;;;56.90;22.10;;;;;;;-3.15;69.94;99532.61;207664;1315;142928;-67
2021/12/27 13:49:58;;;;;;;44.70;22.50;;;;;;;-3.24;69.82;99539.05;207584;1316;142590;-67
2021/12/27 13:55:02;;;;;;;53.00;21.80;;;;;;;-3.36;69.90;99547.38;207513;1316;743177;-68
2021/12/27 14:00:09;;;;;;;62.50;26.00;;;;;;;-3.49;69.87;99548.47;207171;1315;139649;-67
2021/12/27 14:05:15;;;;;;;46.50;23.50;;;;;;;-3.67;69.74;99549.02;209491;1316;140287;-68
2021/12/27 14:10:32;;;;;;;50.10;22.60;;;;;;;-3.89;69.72;99543.32;207129;1316;139807;-68
2021/12/27 14:15:37;;;;;;;39.30;17.00;;;;;;;-4.11;69.94;99544.01;208095;1315;140646;-68
2021/12/27 14:21:06;;;;;;;29.80;15.60;;;;;;;-4.35;69.83;99540.92;208544;1316;139720;-68
2021/12/27 14:26:10;;;;;;;54.50;21.10;;;;;;;-4.59;69.93;99544.59;209361;1318;140607;-68
2021/12/27 14:31:28;;;;;;;44.60;23.80;;;;;;;-4.71;70.02;99541.90;208909;1316;141210;-68
2021/12/27 14:36:33;;;;;;;79.80;29.10;;;;;;;-4.83;70.30;99543.89;209145;1319;142296;-69
2021/12/27 14:41:36;;;;;;;82.10;34.30;;;;;;;-5.01;70.32;99540.04;209559;1315;141828;-68
2021/12/27 14:46:43;;;;;;;52.60;24.50;;;;;;;-5.21;70.32;99541.14;208745;1316;141230;-69
2021/12/27 14:51:47;;;;;;;51.80;24.20;;;;;;;-5.41;70.40;99545.71;208117;1318;140414;-66
2021/12/27 14:56:49;;;;;;;60.20;27.20;;;;;;;-5.60;70.64;99545.05;207142;1318;141917;-66
2021/12/27 15:01:52;;;;;;;51.60;21.40;;;;;;;-5.75;70.83;99540.81;206585;1318;141651;-67
2021/12/27 15:07:03;;;;;;;62.60;32.10;;;;;;;-5.86;70.86;99545.76;207401;1317;143630;-66
2021/12/27 15:12:07;;;;;;;52.80;29.10;;;;;;;-5.98;71.29;99542.00;207114;1316;143063;-66
2021/12/27 15:17:10;;;;;;;61.40;27.40;;;;;;;-6.06;71.46;99539.25;207116;1316;142117;-65
2021/12/27 15:22:16;;;;;;;58.10;27.70;;;;;;;-6.20;71.42;99532.86;207261;1316;233855;-66
2021/12/27 15:27:42;;;;;;;54.50;25.30;;;;;;;-6.35;71.70;99536.39;206843;1316;140952;-68
2021/12/27 15:32:45;;;;;;;70.90;30.70;;;;;;;-6.49;71.75;99547.80;208889;1316;139524;-68
2021/12/27 15:37:50;;;;;;;67.40;28.20;;;;;;;-6.55;71.75;99560.08;207605;1317;140832;-70
2021/12/27 15:43:09;;;;;;;;;;;;;;;;;;;;;
2021/12/27 15:48:23;;;;;;;53.00;26.70;;;;;;;-6.64;71.77;99566.72;208664;1317;140275;-68
2021/12/27 15:53:30;;;;;;;69.20;28.60;;;;;;;-6.72;71.95;99573.67;207819;1316;141200;-67
2021/12/27 15:58:42;;;;;;;44.00;20.30;;;;;;;-6.78;72.04;99568.00;207308;1315;139730;-67
2021/12/27 16:03:52;;;;;;;57.10;25.80;;;;;;;-6.86;71.86;99575.65;207231;1316;139490;-67
2021/12/27 16:09:11;;;;;;;55.70;24.60;;;;;;;-6.87;72.03;99571.30;208107;1316;142029;-67
2021/12/27 16:14:17;;;;;;;81.70;31.00;;;;;;;-6.84;72.17;99562.23;206915;1316;142683;-66
2021/12/27 16:19:22;;;;;;;63.20;30.10;;;;;;;-6.86;72.27;99556.12;209022;1316;140403;-67
2021/12/27 16:24:45;;;;;;;71.70;31.80;;;;;;;-6.88;72.50;99564.66;208312;1317;140966;-68
2021/12/27 16:29:49;;;;;;;64.90;27.30;;;;;;;-6.88;72.64;99564.45;209214;1316;141789;-69
2021/12/27 16:34:55;;;;;;;27.50;12.40;;;;;;;-6.90;72.55;99570.33;208544;1319;140622;-67
2021/12/27 16:40:13;;;;;;;48.30;20.40;;;;;;;-6.88;72.63;99570.70;208788;1319;140942;-67
2021/12/27 16:45:18;;;;;;;51.90;22.00;;;;;;;-6.73;72.76;99568.59;209625;1320;141864;-67
2021/12/27 16:50:26;;;;;;;37.50;15.20;;;;;;;-6.64;72.81;99572.80;208714;1318;140950;-66
2021/12/27 16:55:31;;;;;;;40.40;19.50;;;;;;;-6.59;72.93;99571.47;208884;1316;140424;-69
2021/12/27 17:00:38;;;;;;;52.70;25.20;;;;;;;-6.55;72.97;99569.94;207525;1317;143076;-66
2021/12/27 17:05:48;;;;;;;68.90;26.10;;;;;;;-6.49;72.77;99566.48;208999;1316;140612;-67
2021/12/27 17:10:52;;;;;;;53.60;25.50;;;;;;;-6.44;72.86;99565.44;207860;1316;141077;-67
2021/12/27 17:15:55;;;;;;;36.40;17.00;;;;;;;-6.43;72.80;99569.17;208555;1317;140362;-67
2021/12/27 17:20:59;;;;;;;42.00;18.30;;;;;;;-6.42;73.03;99570.75;208169;1316;140026;-67
2021/12/27 17:26:05;;;;;;;68.10;24.70;;;;;;;-6.36;72.89;99579.42;207621;1312;141032;-68
2021/12/27 17:31:09;;;;;;;57.60;23.00;;;;;;;-6.27;72.86;99564.79;206635;1316;140788;-66
2021/12/27 17:36:11;;;;;;;50.90;26.10;;;;;;;-6.21;73.19;99555.95;208179;1316;140202;-68
2021/12/27 17:41:18;;;;;;;51.50;23.30;;;;;;;-6.16;73.44;99548.29;208431;1316;140505;-67
2021/12/27 17:46:21;;;;;;;43.60;22.00;;;;;;;-6.12;73.40;99542.56;207475;1319;141207;-66
2021/12/27 17:51:24;;;;;;;42.70;21.30;;;;;;;-6.06;73.83;99539.61;206730;1315;140890;-68
2021/12/27 17:56:28;;;;;;;43.90;22.10;;;;;;;-5.98;73.83;99542.85;206939;1316;141259;-69
2021/12/27 18:01:31;;;;;;;38.00;22.60;;;;;;;-5.93;73.68;99548.27;207478;1319;140616;-67
2021/12/27 18:06:34;;;;;;;45.70;22.60;;;;;;;-5.87;74.06;99542.77;206516;1316;141327;-65
2021/12/27 18:11:41;;;;;;;49.10;21.10;;;;;;;-5.83;74.09;99537.39;207744;1318;141195;-67
2021/12/27 18:16:44;;;;;;;44.20;20.90;;;;;;;-5.76;74.16;99537.77;207396;1318;142317;-67
2021/12/27 18:21:49;;;;;;;38.40;20.60;;;;;;;-5.65;74.26;99537.88;209023;1316;140634;-68
2021/12/27 18:26:52;;;;;;;41.70;22.10;;;;;;;-5.58;74.33;99537.27;207877;1316;141459;-68
2021/12/27 18:31:55;;;;;;;34.30;15.50;;;;;;;-5.52;74.40;99532.92;209221;1317;140255;-68
2021/12/27 18:37:01;;;;;;;26.20;11.10;;;;;;;-5.49;74.40;99529.45;209166;1319;139920;-67
2021/12/27 18:42:05;;;;;;;35.00;16.50;;;;;;;-5.46;74.61;99524.14;207767;1316;141593;-68
2021/12/27 18:47:07;;;;;;;44.00;19.90;;;;;;;-5.36;74.60;99525.05;208894;1319;140914;-67
2021/12/27 18:52:11;;;;;;;31.50;18.90;;;;;;;-5.26;74.53;99525.16;209179;1319;141220;-68
2021/12/27 18:57:15;;;;;;;27.40;16.40;;;;;;;-5.19;74.76;99525.04;209323;1318;140903;-67
2021/12/27 19:02:21;;;;;;;22.40;11.50;;;;;;;-5.17;74.95;99522.03;207416;1316;141168;-66
2021/12/27 19:07:25;;;;;;;20.10;9.70;;;;;;;-5.16;75.09;99520.16;207564;1316;140428;-66
2021/12/27 19:12:31;;;;;;;32.80;17.50;;;;;;;-5.13;75.11;99520.60;207196;1316;140693;-66
2021/12/27 19:17:35;;;;;;;28.20;14.30;;;;;;;-5.07;75.04;99515.91;207122;1315;142447;-67
2021/12/27 19:22:42;;;;;;;32.40;13.20;;;;;;;-5.04;75.10;99508.58;206926;1316;141975;-66
2021/12/27 19:27:45;;;;;;;29.10;15.60;;;;;;;-5.06;75.34;99515.20;207774;1317;139754;-66
2021/12/27 19:32:52;;;;;;;40.20;16.20;;;;;;;-5.10;75.43;99511.48;207201;1316;141618;-66
2021/12/27 19:38:01;;;;;;;42.60;20.10;;;;;;;-5.11;75.40;99518.16;206805;1315;140759;-66
2021/12/27 19:43:05;;;;;;;33.50;18.60;;;;;;;-5.08;75.47;99513.98;206957;1316;141665;-65
2021/12/27 19:48:08;;;;;;;35.80;17.60;;;;;;;-5.11;75.51;99508.34;207354;1316;140025;-65
2021/12/27 19:53:13;;;;;;;32.20;13.80;;;;;;;-5.15;75.67;99510.59;207907;1315;141267;-66
2021/12/27 19:58:17;;;;;;;39.70;18.60;;;;;;;-5.17;75.72;99511.30;207732;1316;140378;-69
2021/12/27 20:03:20;;;;;;;34.90;16.10;;;;;;;-5.16;75.83;99507.42;206845;1315;140186;-66
2021/12/27 20:08:25;;;;;;;29.70;16.00;;;;;;;-5.20;76.00;99508.52;207346;1316;141009;-65
2021/12/27 20:13:28;;;;;;;35.80;16.20;;;;;;;-5.19;76.21;99507.90;207888;1316;140252;-66
2021/12/27 20:18:35;;;;;;;40.40;20.30;;;;;;;-5.13;76.22;99501.92;207391;1317;140240;-67
2021/12/27 20:23:38;;;;;;;42.20;21.80;;;;;;;-5.10;76.16;99505.58;207101;1318;141866;-65
2021/12/27 20:28:44;;;;;;;35.80;17.90;;;;;;;-5.09;76.47;99502.05;207956;1318;140800;-68
2021/12/27 20:33:53;;;;;;;50.20;21.70;;;;;;;-5.06;76.45;99495.99;207301;1316;140710;-66
2021/12/27 20:39:00;;;;;;;29.20;16.20;;;;;;;-5.04;76.32;99490.88;209004;1318;142167;-67
2021/12/27 20:44:10;;;;;;;24.30;14.60;;;;;;;-5.06;76.36;99484.83;208406;1318;141770;-66
2021/12/27 20:49:16;;;;;;;28.80;12.40;;;;;;;-5.05;76.44;99485.60;208909;1316;140296;-69
2021/12/27 20:54:19;;;;;;;39.10;19.40;;;;;;;-4.98;76.40;99479.56;209446;1317;141600;-67
2021/12/27 20:59:22;;;;;;;37.20;18.60;;;;;;;-4.95;76.34;99485.96;209469;1316;141833;-66
2021/12/27 21:04:26;;;;;;;35.40;19.00;;;;;;;-4.96;76.35;99480.85;208956;1316;140990;-66
2021/12/27 21:09:29;;;;;;;27.60;13.50;;;;;;;-4.93;76.33;99482.13;207129;1316;142143;-66
2021/12/27 21:14:32;;;;;;;30.00;15.00;;;;;;;-4.89;76.34;99485.17;208176;1315;140022;-66
2021/12/27 21:19:34;;;;;;;23.50;12.90;;;;;;;-4.89;76.59;99482.44;209358;1316;139791;-68
2021/12/27 21:24:42;;;;;;;32.80;17.00;;;;;;;-4.92;76.59;99482.02;208300;1316;140333;-64
2021/12/27 21:29:50;;;;;;;34.80;16.10;;;;;;;-4.87;76.48;99481.54;207494;1316;141884;-67
2021/12/27 21:34:58;;;;;;;28.90;14.40;;;;;;;-4.89;76.51;99490.73;208874;1316;141659;-65
2021/12/27 21:40:00;;;;;;;38.70;18.70;;;;;;;-4.93;76.59;99486.97;207238;1317;139717;-70
2021/12/27 21:45:03;;;;;;;37.90;15.80;;;;;;;-4.92;76.52;99492.77;208863;1317;140625;-65
2021/12/27 21:50:06;;;;;;;33.10;14.60;;;;;;;-4.86;76.69;99488.80;207142;1317;140500;-67
2021/12/27 21:55:40;;;;;;;33.40;17.00;;;;;;;-4.86;76.56;99490.04;206792;1318;437862;-67
2021/12/27 22:00:44;;;;;;;19.10;10.90;;;;;;;-4.89;76.60;99479.97;207474;1317;139422;-67
2021/12/27 22:06:07;;;;;;;39.40;18.10;;;;;;;-4.90;76.70;99464.27;207707;1316;141363;-65
2021/12/27 22:11:10;;;;;;;33.30;16.00;;;;;;;-4.86;76.58;99459.39;207878;1316;140953;-67
2021/12/27 22:16:17;;;;;;;28.30;14.30;;;;;;;-4.88;76.54;99459.10;207154;1316;140653;-65
2021/12/27 22:21:20;;;;;;;28.90;15.20;;;;;;;-4.95;76.72;99459.04;206792;1316;140941;-70
2021/12/27 22:26:23;;;;;;;46.90;20.70;;;;;;;-4.99;76.58;99453.93;206888;1315;141170;-67
2021/12/27 22:31:43;;;;;;;40.00;20.70;;;;;;;-5.02;76.66;99447.08;208960;1318;141750;-67
2021/12/27 22:36:46;;;;;;;22.20;11.00;;;;;;;-5.03;76.81;99440.23;207143;1315;139898;-66
2021/12/27 22:41:52;;;;;;;31.10;16.60;;;;;;;-5.04;76.93;99450.33;208461;1316;141731;-68
2021/12/27 22:46:59;;;;;;;26.10;13.30;;;;;;;-4.98;76.68;99447.74;208224;1318;140550;-66
2021/12/27 22:52:12;;;;;;;34.40;17.90;;;;;;;-4.98;76.75;99446.16;208725;1318;139854;-67
2021/12/27 22:57:15;;;;;;;33.30;16.80;;;;;;;-5.00;76.76;99449.09;209451;1318;141792;-68
2021/12/27 23:02:17;;;;;;;36.00;19.70;;;;;;;-4.96;76.68;99447.73;208465;1318;141155;-70